createdAt,value
2023-03-04T00:01:18.745Z,51.90
2023-03-04T00:02:39.248Z,49.47
2023-03-04T00:03:43.965Z,49.97
2023-03-04T00:04:47.088Z,50.40
2023-03-04T00:05:31.279Z,49.23
2023-03-04T00:06:10.898Z,51.27
2023-03-04T00:06:50.171Z,50.80
2023-03-04T00:07:32.015Z,50.93
2023-03-04T00:08:12.637Z,50.27
2023-03-04T00:09:00.271Z,51.40
2023-03-04T00:09:43.504Z,50.43
2023-03-04T00:10:32.732Z,52.67
2023-03-04T00:11:15.930Z,49.97
2023-03-04T00:11:54.877Z,48.57
2023-03-04T00:12:58.392Z,47.57
2023-03-04T00:14:15.865Z,48.27
2023-03-04T00:15:45.881Z,50.53
2023-03-04T00:16:27.399Z,49.87
2023-03-04T00:17:09.148Z,50.93
2023-03-04T00:17:48.582Z,50.90
2023-03-04T00:18:30.947Z,48.93
2023-03-04T00:19:12.137Z,49.40
2023-03-04T00:21:45.061Z,50.53
2023-03-04T00:22:27.608Z,49.17
2023-03-04T00:23:17.055Z,51.07
2023-03-04T00:23:58.973Z,52.57
2023-03-04T00:24:38.139Z,52.80
2023-03-04T00:25:25.114Z,52.47
2023-03-04T00:26:18.417Z,49.97
2023-03-04T00:27:00.951Z,52.00
2023-03-04T00:28:20.625Z,51.80
2023-03-04T00:29:00.626Z,52.53
2023-03-04T00:30:33.618Z,52.27
2023-03-04T00:31:12.989Z,54.70
2023-03-04T00:32:00.634Z,50.20
2023-03-04T00:33:04.166Z,50.33
2023-03-04T00:33:44.838Z,50.80
2023-03-04T00:34:48.646Z,51.83
2023-03-04T00:35:28.074Z,51.53
2023-03-04T00:36:11.721Z,50.77
2023-03-04T00:37:15.325Z,53.07
2023-03-04T00:37:58.217Z,51.67
2023-03-04T00:38:49.762Z,51.70
2023-03-04T00:39:53.607Z,51.17
2023-03-04T00:41:37.287Z,51.33
2023-03-04T00:42:26.851Z,49.80
2023-03-04T00:43:31.677Z,50.80
2023-03-04T00:44:52.690Z,51.03
2023-03-04T00:47:33.121Z,53.40
2023-03-04T00:49:11.216Z,50.57
2023-03-04T00:51:09.180Z,49.27
2023-03-04T00:52:28.091Z,49.33
2023-03-04T00:53:16.834Z,52.03
2023-03-04T00:53:55.605Z,49.90
2023-03-04T00:54:38.158Z,50.17
2023-03-04T00:55:23.422Z,49.53
2023-03-04T00:56:06.497Z,48.90
2023-03-04T00:56:45.052Z,48.43
2023-03-04T00:57:24.000Z,50.10
2023-03-04T00:58:07.399Z,47.63
2023-03-04T00:58:47.013Z,48.37
2023-03-04T00:59:25.845Z,49.80
2023-03-04T01:00:05.911Z,51.83
2023-03-04T01:00:46.708Z,49.13
2023-03-04T01:02:04.005Z,48.77
2023-03-04T01:02:46.011Z,49.90
2023-03-04T01:03:26.959Z,49.83
2023-03-04T01:04:13.900Z,52.03
2023-03-04T01:04:53.511Z,50.07
2023-03-04T01:05:36.119Z,49.47
2023-03-04T01:06:39.657Z,51.80
2023-03-04T01:07:58.902Z,50.17
2023-03-04T01:09:21.324Z,49.97
2023-03-04T01:10:00.707Z,48.97
2023-03-04T01:10:39.934Z,52.23
2023-03-04T01:11:43.438Z,52.87
2023-03-04T01:13:03.076Z,51.53
2023-03-04T01:14:21.142Z,50.83
2023-03-04T01:15:00.687Z,52.43
2023-03-04T01:15:43.229Z,51.43
2023-03-04T01:16:23.663Z,52.70
2023-03-04T01:17:03.240Z,51.53
2023-03-04T01:17:43.273Z,53.63
2023-03-04T01:18:26.118Z,53.47
2023-03-04T01:19:05.888Z,52.23
2023-03-04T01:19:47.905Z,49.70
2023-03-04T01:20:27.259Z,50.37
2023-03-04T01:21:08.012Z,51.23
2023-03-04T01:22:37.956Z,54.83
2023-03-04T01:23:57.045Z,53.70
2023-03-04T01:25:29.074Z,53.30
2023-03-04T01:26:15.788Z,52.97
2023-03-04T01:26:55.580Z,52.70
2023-03-04T01:27:38.091Z,53.27
2023-03-04T01:28:26.939Z,53.63
2023-03-04T01:29:08.987Z,51.07
2023-03-04T01:29:48.052Z,53.87
2023-03-04T01:30:26.947Z,51.97
2023-03-04T01:31:07.063Z,51.67
2023-03-04T01:31:45.908Z,52.23
2023-03-04T01:32:24.712Z,53.43
2023-03-04T01:33:03.632Z,51.37
2023-03-04T01:34:10.083Z,52.13
2023-03-04T01:37:25.114Z,51.80
2023-03-04T01:39:41.925Z,53.63
2023-03-04T01:40:21.934Z,55.30
2023-03-04T01:41:01.293Z,55.47
2023-03-04T01:41:43.703Z,55.40
2023-03-04T01:42:47.508Z,54.60
2023-03-04T01:43:26.848Z,53.20
2023-03-04T01:44:45.452Z,53.87
2023-03-04T01:45:25.086Z,52.13
2023-03-04T01:46:29.069Z,52.67
2023-03-04T01:49:30.552Z,55.50
2023-03-04T01:52:16.747Z,52.97
2023-03-04T01:52:57.118Z,53.27
2023-03-04T01:53:37.102Z,53.73
2023-03-04T01:54:16.664Z,53.90
2023-03-04T01:55:00.364Z,52.17
2023-03-04T01:57:18.047Z,49.77
2023-03-04T01:59:09.039Z,50.87
2023-03-04T01:59:49.722Z,50.83
2023-03-04T02:00:35.428Z,50.27
2023-03-04T02:01:16.475Z,49.17
2023-03-04T02:02:00.344Z,48.37
2023-03-04T02:02:40.226Z,47.37
2023-03-04T02:03:22.905Z,48.20
2023-03-04T02:04:03.889Z,51.57
2023-03-04T02:05:07.514Z,51.73
2023-03-04T02:05:47.904Z,50.17
2023-03-04T02:07:58.505Z,49.67
2023-03-04T02:08:39.404Z,48.67
2023-03-04T02:09:21.235Z,47.20
2023-03-04T02:10:24.810Z,49.83
2023-03-04T02:11:04.943Z,50.20
2023-03-04T02:11:46.405Z,48.73
2023-03-04T02:14:09.534Z,49.00
2023-03-04T02:15:27.894Z,46.70
2023-03-04T02:16:07.607Z,47.07
2023-03-04T02:16:56.070Z,45.57
2023-03-04T02:18:24.052Z,46.77
2023-03-04T02:19:53.736Z,46.30
2023-03-04T02:21:07.050Z,45.60
2023-03-04T02:22:10.756Z,46.40
2023-03-04T02:25:52.854Z,48.07
2023-03-04T02:26:31.759Z,45.83
2023-03-04T02:27:11.234Z,45.40
2023-03-04T02:27:51.822Z,46.40
2023-03-04T02:28:34.337Z,48.30
2023-03-04T02:29:38.185Z,48.77
2023-03-04T02:30:41.751Z,45.50
2023-03-04T02:31:59.676Z,44.77
2023-03-04T02:33:39.345Z,44.47
2023-03-04T02:34:27.754Z,47.10
2023-03-04T02:35:18.321Z,46.80
2023-03-04T02:35:59.791Z,43.07
2023-03-04T02:36:45.817Z,43.00
2023-03-04T02:37:24.998Z,43.87
2023-03-04T02:38:04.613Z,43.87
2023-03-04T02:39:44.069Z,44.53
2023-03-04T02:41:06.757Z,42.00
2023-03-04T02:42:29.095Z,44.17
2023-03-04T02:43:12.133Z,44.47
2023-03-04T02:45:09.694Z,43.43
2023-03-04T02:45:52.089Z,42.03
2023-03-04T02:46:39.778Z,42.30
2023-03-04T02:47:22.103Z,42.57
2023-03-04T02:48:05.129Z,42.70
2023-03-04T02:49:34.603Z,40.07
2023-03-04T02:50:17.810Z,45.47
2023-03-04T02:51:06.016Z,44.40
2023-03-04T02:52:22.705Z,38.87
2023-03-04T02:53:02.173Z,39.70
2023-03-04T02:53:41.663Z,41.07
2023-03-04T02:54:21.487Z,41.13
2023-03-04T02:55:01.041Z,39.57
2023-03-04T02:56:28.790Z,39.40
2023-03-04T02:57:11.171Z,41.10
2023-03-04T02:57:50.133Z,41.10
2023-03-04T02:58:31.993Z,39.60
2023-03-04T02:59:15.730Z,37.87
2023-03-04T02:59:54.790Z,39.40
2023-03-04T03:00:33.967Z,40.47
2023-03-04T03:02:20.958Z,40.57
2023-03-04T03:03:04.455Z,39.87
2023-03-04T03:04:08.564Z,42.70
2023-03-04T03:04:46.601Z,40.37
2023-03-04T03:05:31.243Z,40.77
2023-03-04T03:06:10.808Z,37.77
2023-03-04T03:06:50.522Z,38.50
2023-03-04T03:09:29.842Z,37.30
2023-03-04T03:10:09.864Z,40.00
2023-03-04T03:10:50.250Z,40.27
2023-03-04T03:11:38.133Z,42.23
2023-03-04T03:14:02.025Z,36.93
2023-03-04T03:15:20.103Z,37.47
2023-03-04T03:16:08.926Z,37.67
2023-03-04T03:16:48.802Z,38.53
2023-03-04T03:18:47.408Z,38.23
2023-03-04T03:19:26.214Z,37.03
2023-03-04T03:20:07.763Z,34.87
2023-03-04T03:20:48.232Z,37.43
2023-03-04T03:21:27.309Z,39.37
2023-03-04T03:22:07.261Z,37.67
2023-03-04T03:22:54.093Z,38.47
2023-03-04T03:23:43.558Z,40.77
2023-03-04T03:24:26.234Z,37.13
2023-03-04T03:25:09.772Z,40.23
2023-03-04T03:26:02.658Z,43.80
2023-03-04T03:27:41.804Z,39.80
2023-03-04T03:28:24.166Z,40.40
2023-03-04T03:29:02.980Z,40.23
2023-03-04T03:29:43.320Z,46.60
2023-03-04T03:30:23.422Z,42.97
2023-03-04T03:31:04.927Z,40.80
2023-03-04T03:32:08.714Z,48.87
2023-03-04T03:32:51.382Z,39.93
2023-03-04T03:33:33.291Z,40.40
2023-03-04T03:34:12.223Z,37.87
2023-03-04T03:34:59.142Z,37.27
2023-03-04T03:35:39.215Z,38.37
2023-03-04T03:36:18.417Z,36.50
2023-03-04T03:37:46.257Z,40.23
2023-03-04T03:38:28.051Z,40.03
2023-03-04T03:39:07.266Z,41.97
2023-03-04T03:39:46.907Z,40.07
2023-03-04T03:40:50.855Z,37.60
2023-03-04T03:41:30.837Z,37.83
2023-03-04T03:43:10.443Z,39.43
2023-03-04T03:43:49.967Z,39.40
2023-03-04T03:44:29.243Z,38.00
2023-03-04T03:45:32.711Z,37.73
2023-03-04T03:46:50.953Z,37.47
2023-03-04T03:47:32.625Z,36.47
2023-03-04T03:50:14.878Z,42.03
2023-03-04T03:51:35.277Z,45.67
2023-03-04T03:52:14.885Z,41.83
2023-03-04T03:52:54.587Z,38.57
2023-03-04T03:53:34.479Z,38.20
2023-03-04T03:54:14.738Z,40.53
2023-03-04T03:54:57.047Z,39.07
2023-03-04T03:56:01.136Z,41.30
2023-03-04T03:57:20.835Z,44.43
2023-03-04T03:58:10.094Z,41.80
2023-03-04T04:00:09.554Z,52.30
2023-03-04T04:00:59.136Z,56.47
2023-03-04T04:01:41.015Z,45.37
2023-03-04T04:02:22.613Z,42.90
2023-03-04T04:03:02.219Z,38.63
2023-03-04T04:03:42.242Z,37.70
2023-03-04T04:04:45.508Z,37.00
2023-03-04T04:06:03.452Z,43.23
2023-03-04T04:06:42.373Z,41.77
2023-03-04T04:07:29.143Z,38.97
2023-03-04T04:08:14.639Z,39.90
2023-03-04T04:08:54.193Z,38.43
2023-03-04T04:09:32.243Z,36.03
2023-03-04T04:10:14.242Z,39.50
2023-03-04T04:10:56.446Z,42.93
2023-03-04T04:11:36.562Z,40.10
2023-03-04T04:12:19.267Z,36.63
2023-03-04T04:13:06.113Z,43.80
2023-03-04T04:13:55.179Z,39.83
2023-03-04T04:14:34.982Z,36.47
2023-03-04T04:15:14.277Z,43.17
2023-03-04T04:15:54.106Z,48.80
2023-03-04T04:16:33.344Z,43.37
2023-03-04T04:17:21.453Z,39.87
2023-03-04T04:18:01.391Z,39.60
2023-03-04T04:18:41.227Z,42.90
2023-03-04T04:19:21.500Z,42.03
2023-03-04T04:20:01.438Z,41.53
2023-03-04T04:21:19.380Z,42.87
2023-03-04T04:23:58.664Z,50.93
2023-03-04T04:24:43.060Z,49.80
2023-03-04T04:25:30.475Z,43.50
2023-03-04T04:26:10.287Z,38.93
2023-03-04T04:26:49.912Z,43.03
2023-03-04T04:27:29.417Z,40.80
2023-03-04T04:28:08.235Z,38.03
2023-03-04T04:28:47.339Z,44.77
2023-03-04T04:29:36.092Z,51.40
2023-03-04T04:30:14.874Z,45.13
2023-03-04T04:30:54.054Z,41.63
2023-03-04T04:31:41.182Z,45.07
2023-03-04T04:34:30.432Z,41.97
2023-03-04T04:35:09.673Z,37.70
2023-03-04T04:35:48.863Z,37.40
2023-03-04T04:36:31.374Z,35.50
2023-03-04T04:37:50.283Z,39.73
2023-03-04T04:39:48.188Z,41.60
2023-03-04T04:40:37.138Z,39.27
2023-03-04T04:41:23.147Z,42.27
2023-03-04T04:42:42.351Z,33.97
2023-03-04T04:43:25.933Z,38.17
2023-03-04T04:44:06.047Z,37.53
2023-03-04T04:44:46.412Z,40.60
2023-03-04T04:45:49.718Z,43.50
2023-03-04T04:46:28.873Z,37.60
2023-03-04T04:47:10.162Z,34.37
2023-03-04T04:49:11.576Z,37.07
2023-03-04T04:50:00.449Z,35.97
2023-03-04T04:51:18.597Z,53.47
2023-03-04T04:51:58.899Z,58.57
2023-03-04T04:53:18.353Z,44.47
2023-03-04T04:54:41.341Z,40.83
2023-03-04T04:55:21.745Z,41.37
2023-03-04T04:56:09.779Z,47.60
2023-03-04T04:57:01.919Z,42.13
2023-03-04T04:57:41.025Z,46.10
2023-03-04T04:58:23.178Z,47.07
2023-03-04T05:01:20.769Z,39.37
2023-03-04T05:02:40.067Z,33.63
2023-03-04T05:03:29.172Z,35.47
2023-03-04T05:04:10.974Z,40.13
2023-03-04T05:04:58.176Z,42.37
2023-03-04T05:05:37.330Z,37.50
2023-03-04T05:06:25.709Z,40.10
2023-03-04T05:07:13.085Z,49.37
2023-03-04T05:07:53.355Z,45.83
2023-03-04T05:08:32.854Z,35.73
2023-03-04T05:09:51.413Z,36.07
2023-03-04T05:10:40.111Z,37.93
2023-03-04T05:12:01.314Z,46.70
2023-03-04T05:12:53.091Z,38.80
2023-03-04T05:13:35.919Z,46.37
2023-03-04T05:14:15.192Z,51.03
2023-03-04T05:14:57.309Z,44.03
2023-03-04T05:16:57.601Z,39.93
2023-03-04T05:18:19.563Z,48.43
2023-03-04T05:18:59.894Z,50.93
2023-03-04T05:19:47.383Z,48.60
2023-03-04T05:20:51.879Z,38.17
2023-03-04T05:21:32.530Z,36.10
2023-03-04T05:22:14.286Z,37.07
2023-03-04T05:22:54.957Z,39.23
2023-03-04T05:24:22.294Z,46.10
2023-03-04T05:25:27.155Z,37.80
2023-03-04T05:26:08.829Z,37.77
2023-03-04T05:26:48.397Z,38.63
2023-03-04T05:27:29.020Z,35.97
2023-03-04T05:28:18.408Z,37.03
2023-03-04T05:28:58.127Z,34.13
2023-03-04T05:29:37.358Z,38.37
2023-03-04T05:30:16.905Z,42.43
2023-03-04T05:31:50.880Z,35.40
2023-03-04T05:33:09.683Z,32.63
2023-03-04T05:33:50.363Z,35.90
2023-03-04T05:34:30.321Z,40.87
2023-03-04T05:35:09.840Z,49.13
2023-03-04T05:36:48.004Z,36.27
2023-03-04T05:37:37.213Z,32.97
2023-03-04T05:38:28.521Z,35.47
2023-03-04T05:39:17.148Z,52.47
2023-03-04T05:40:06.556Z,46.53
2023-03-04T05:40:59.349Z,46.03
2023-03-04T05:41:39.397Z,39.20
2023-03-04T05:43:13.581Z,36.37
2023-03-04T05:44:31.346Z,36.73
2023-03-04T05:45:34.992Z,44.73
2023-03-04T05:46:14.959Z,58.90
2023-03-04T05:46:58.572Z,62.87
2023-03-04T05:48:19.927Z,40.97
2023-03-04T05:49:02.257Z,36.87
2023-03-04T05:49:42.759Z,40.17
2023-03-04T05:50:32.937Z,37.93
2023-03-04T05:51:14.362Z,36.63
2023-03-04T05:51:56.279Z,35.37
2023-03-04T05:52:38.579Z,38.47
2023-03-04T05:53:18.510Z,35.53
2023-03-04T05:54:07.198Z,35.10
2023-03-04T05:54:47.475Z,34.37
2023-03-04T05:55:27.905Z,37.67
2023-03-04T05:56:18.865Z,38.17
2023-03-04T05:57:06.145Z,35.17
2023-03-04T05:57:59.202Z,33.40
2023-03-04T05:59:20.918Z,34.20
2023-03-04T06:01:21.779Z,34.93
2023-03-04T06:02:09.349Z,34.17
2023-03-04T06:03:12.440Z,35.23
2023-03-04T06:03:53.086Z,35.10
2023-03-04T06:04:32.413Z,36.57
2023-03-04T06:06:06.642Z,37.17
2023-03-04T06:06:47.433Z,36.70
2023-03-04T06:07:27.057Z,35.00
2023-03-04T06:08:05.959Z,39.07
2023-03-04T06:08:49.371Z,56.13
2023-03-04T06:11:30.523Z,50.87
2023-03-04T06:12:48.346Z,42.40
2023-03-04T06:13:27.521Z,35.47
2023-03-04T06:15:33.331Z,36.80
2023-03-04T06:16:12.350Z,37.13
2023-03-04T06:16:51.578Z,33.63
2023-03-04T06:17:31.314Z,36.60
2023-03-04T06:18:20.303Z,43.80
2023-03-04T06:19:02.419Z,36.87
2023-03-04T06:20:21.449Z,31.63
2023-03-04T06:22:59.500Z,35.63
2023-03-04T06:23:39.164Z,33.60
2023-03-04T06:24:19.335Z,33.53
2023-03-04T06:24:59.335Z,35.80
2023-03-04T06:26:21.337Z,36.53
2023-03-04T06:27:01.068Z,43.23
2023-03-04T06:27:50.419Z,39.37
2023-03-04T06:28:54.659Z,37.73
2023-03-04T06:29:34.409Z,32.20
2023-03-04T06:30:23.212Z,36.93
2023-03-04T06:31:03.298Z,39.87
2023-03-04T06:32:07.045Z,36.07
2023-03-04T06:33:18.783Z,35.50
2023-03-04T06:34:39.041Z,34.00
2023-03-04T06:35:26.144Z,36.53
2023-03-04T06:37:55.150Z,40.70
2023-03-04T06:39:14.946Z,35.87
2023-03-04T06:39:54.003Z,33.90
2023-03-04T06:40:33.556Z,35.90
2023-03-04T06:41:15.460Z,32.27
2023-03-04T06:42:04.171Z,39.47
2023-03-04T06:42:44.686Z,36.97
2023-03-04T06:45:24.951Z,33.90
2023-03-04T06:46:14.471Z,34.77
2023-03-04T06:46:55.682Z,35.53
2023-03-04T06:49:54.953Z,32.23
2023-03-04T06:50:33.915Z,35.97
2023-03-04T06:51:13.502Z,37.33
2023-03-04T06:51:55.484Z,36.50
2023-03-04T06:52:34.860Z,38.67
2023-03-04T06:53:17.544Z,37.73
2023-03-04T06:53:58.293Z,34.20
2023-03-04T06:54:37.671Z,36.10
2023-03-04T06:55:20.448Z,34.27
2023-03-04T06:56:12.292Z,36.57
2023-03-04T06:56:52.045Z,35.83
2023-03-04T07:01:44.754Z,36.87
2023-03-04T07:02:24.378Z,33.63
2023-03-04T07:03:12.427Z,36.97
2023-03-04T07:03:55.381Z,33.93
2023-03-04T07:04:35.830Z,34.43
2023-03-04T07:05:42.604Z,35.73
2023-03-04T07:06:27.159Z,35.93
2023-03-04T07:07:06.355Z,35.13
2023-03-04T07:07:55.912Z,34.17
2023-03-04T07:08:43.788Z,32.80
2023-03-04T07:09:25.725Z,34.23
2023-03-04T07:10:07.814Z,34.47
2023-03-04T07:11:01.499Z,33.57
2023-03-04T07:14:25.990Z,36.20
2023-03-04T07:15:05.192Z,35.77
2023-03-04T07:15:45.882Z,34.93
2023-03-04T07:16:28.319Z,34.77
2023-03-04T07:17:07.903Z,37.70
2023-03-04T07:17:47.715Z,35.30
2023-03-04T07:18:28.040Z,39.73
2023-03-04T07:19:07.828Z,41.07
2023-03-04T07:19:46.873Z,40.17
2023-03-04T07:20:28.307Z,38.13
2023-03-04T07:21:13.616Z,35.17
2023-03-04T07:23:13.426Z,35.53
2023-03-04T07:26:14.424Z,42.40
2023-03-04T07:26:53.958Z,40.03
2023-03-04T07:27:34.163Z,36.77
2023-03-04T07:28:13.630Z,38.90
2023-03-04T07:28:54.601Z,37.97
2023-03-04T07:29:36.538Z,36.47
2023-03-04T07:30:23.801Z,37.43
2023-03-04T07:32:30.353Z,34.73
2023-03-04T07:34:10.281Z,36.80
2023-03-04T07:34:49.789Z,37.53
2023-03-04T07:35:36.809Z,37.87
2023-03-04T07:36:29.067Z,36.77
2023-03-04T07:37:17.838Z,36.07
2023-03-04T07:37:58.886Z,35.67
2023-03-04T07:39:02.552Z,36.67
2023-03-04T07:40:27.651Z,38.40
2023-03-04T07:41:17.351Z,36.80
2023-03-04T07:42:00.012Z,36.93
2023-03-04T07:44:55.379Z,35.93
2023-03-04T07:46:25.713Z,36.07
2023-03-04T07:47:04.506Z,36.83
2023-03-04T07:47:46.985Z,37.73
2023-03-04T07:48:29.456Z,36.70
2023-03-04T07:49:08.899Z,37.57
2023-03-04T07:49:48.961Z,36.07
2023-03-04T07:50:40.741Z,37.60
2023-03-04T07:51:22.865Z,36.47
2023-03-04T07:53:03.729Z,37.27
2023-03-04T07:53:45.696Z,38.07
2023-03-04T07:54:24.803Z,37.77
2023-03-04T07:55:04.772Z,38.37
2023-03-04T07:55:49.716Z,37.33
2023-03-04T07:56:28.587Z,37.77
2023-03-04T07:57:11.530Z,37.30
2023-03-04T07:57:50.893Z,36.73
2023-03-04T07:58:33.179Z,38.30
2023-03-04T07:59:13.831Z,37.80
2023-03-04T07:59:53.909Z,35.87
2023-03-04T08:00:32.856Z,36.03
2023-03-04T08:01:18.278Z,37.87
2023-03-04T08:02:05.702Z,37.03
2023-03-04T08:02:52.774Z,36.83
2023-03-04T08:03:39.688Z,37.53
2023-03-04T08:04:21.577Z,37.63
2023-03-04T08:05:09.182Z,38.07
2023-03-04T08:05:48.553Z,34.83
2023-03-04T08:06:30.814Z,36.20
2023-03-04T08:07:33.962Z,37.07
2023-03-04T08:08:12.949Z,37.00
2023-03-04T08:08:57.553Z,36.70
2023-03-04T08:10:22.730Z,35.73
2023-03-04T08:11:10.908Z,35.07
2023-03-04T08:11:52.903Z,37.00
2023-03-04T08:12:41.619Z,36.77
2023-03-04T08:13:20.902Z,39.07
2023-03-04T08:14:00.429Z,39.70
2023-03-04T08:17:20.216Z,37.83
2023-03-04T08:19:02.350Z,39.00
2023-03-04T08:19:42.412Z,38.40
2023-03-04T08:20:29.634Z,39.77
2023-03-04T08:22:02.144Z,39.63
2023-03-04T08:22:44.848Z,39.30
2023-03-04T08:23:31.672Z,38.87
2023-03-04T08:24:18.769Z,40.33
2023-03-04T08:24:57.616Z,41.33
2023-03-04T08:25:41.926Z,41.57
2023-03-04T08:26:34.165Z,41.10
2023-03-04T08:27:14.785Z,41.33
2023-03-04T08:27:57.016Z,40.37
2023-03-04T08:28:37.048Z,42.70
2023-03-04T08:29:40.294Z,40.00
2023-03-04T08:31:17.051Z,41.40
2023-03-04T08:32:34.219Z,41.17
2023-03-04T08:33:56.706Z,42.20
2023-03-04T08:34:51.618Z,41.03
2023-03-04T08:35:40.536Z,39.93
2023-03-04T08:36:44.799Z,40.70
2023-03-04T08:38:02.601Z,41.97
2023-03-04T08:38:42.466Z,41.83
2023-03-04T08:39:21.972Z,40.47
2023-03-04T08:40:01.424Z,40.53
2023-03-04T08:40:40.413Z,41.93
2023-03-04T08:41:27.979Z,42.33
2023-03-04T08:42:06.847Z,40.47
2023-03-04T08:42:48.886Z,41.67
2023-03-04T08:43:27.937Z,42.33
2023-03-04T08:44:31.328Z,43.00
2023-03-04T08:45:10.409Z,42.43
2023-03-04T08:45:59.126Z,43.47
2023-03-04T08:46:39.563Z,43.50
2023-03-04T08:47:33.704Z,42.50
2023-03-04T08:48:17.099Z,41.70
2023-03-04T08:49:20.311Z,42.77
2023-03-04T08:50:24.374Z,42.30
2023-03-04T08:51:10.397Z,43.60
2023-03-04T08:52:37.775Z,41.90
2023-03-04T08:53:24.990Z,41.70
2023-03-04T08:54:05.262Z,43.53
2023-03-04T08:55:10.195Z,42.50
2023-03-04T08:55:52.718Z,43.53
2023-03-04T08:56:56.534Z,42.83
2023-03-04T08:58:15.931Z,43.10
2023-03-04T08:59:52.411Z,42.27
2023-03-04T09:01:16.189Z,42.70
2023-03-04T09:01:56.314Z,41.17
2023-03-04T09:03:50.827Z,43.63
2023-03-04T09:04:37.890Z,42.00
2023-03-04T09:05:41.576Z,42.63
2023-03-04T09:07:47.355Z,44.83
2023-03-04T09:08:27.572Z,44.53
2023-03-04T09:09:15.631Z,45.30
2023-03-04T09:10:33.970Z,44.83
2023-03-04T09:11:22.651Z,44.47
2023-03-04T09:12:02.160Z,46.00
2023-03-04T09:12:41.897Z,44.17
2023-03-04T09:14:12.526Z,45.40
2023-03-04T09:15:16.670Z,42.70
2023-03-04T09:16:58.681Z,43.60
2023-03-04T09:17:38.726Z,43.90
2023-03-04T09:18:28.948Z,43.23
2023-03-04T09:19:08.509Z,42.87
2023-03-04T09:20:13.797Z,42.97
2023-03-04T09:20:53.085Z,44.60
2023-03-04T09:22:11.974Z,44.83
2023-03-04T09:22:50.859Z,43.57
2023-03-04T09:23:32.849Z,45.47
2023-03-04T09:24:11.797Z,46.77
2023-03-04T09:24:53.800Z,44.73
2023-03-04T09:25:44.684Z,43.57
2023-03-04T09:26:29.454Z,43.90
2023-03-04T09:27:11.903Z,43.73
2023-03-04T09:27:53.893Z,45.80
2023-03-04T09:28:33.871Z,47.10
2023-03-04T09:29:21.046Z,45.27
2023-03-04T09:30:00.857Z,46.00
2023-03-04T09:30:48.508Z,47.27
2023-03-04T09:31:30.672Z,45.07
2023-03-04T09:32:26.305Z,45.37
2023-03-04T09:36:26.039Z,45.53
2023-03-04T09:37:18.775Z,46.73
2023-03-04T09:37:59.324Z,44.97
2023-03-04T09:40:24.876Z,47.67
2023-03-04T09:41:34.434Z,47.27
2023-03-04T09:43:22.592Z,49.43
2023-03-04T09:44:18.897Z,46.93
2023-03-04T09:44:59.267Z,46.63
2023-03-04T09:45:52.185Z,47.57
2023-03-04T09:46:39.961Z,45.40
2023-03-04T09:47:22.591Z,47.17
2023-03-04T09:48:13.395Z,47.37
2023-03-04T09:48:56.891Z,47.67
2023-03-04T09:49:52.711Z,45.63
2023-03-04T09:50:38.175Z,47.00
2023-03-04T09:51:23.561Z,46.50
2023-03-04T09:52:18.643Z,46.10
2023-03-04T09:53:07.478Z,47.33
2023-03-04T09:53:46.598Z,49.30
2023-03-04T09:55:04.602Z,48.43
2023-03-04T09:55:47.053Z,48.63
2023-03-04T09:56:28.460Z,46.73
2023-03-04T09:57:10.549Z,48.13
2023-03-04T09:58:23.436Z,47.53
2023-03-04T09:59:40.207Z,46.50
2023-03-04T10:00:45.523Z,47.50
2023-03-04T10:01:32.242Z,46.27
2023-03-04T10:02:55.275Z,47.23
2023-03-04T10:04:25.394Z,47.77
2023-03-04T10:05:07.911Z,49.30
2023-03-04T10:05:47.009Z,47.80
2023-03-04T10:06:31.404Z,49.47
2023-03-04T10:07:10.550Z,49.53
2023-03-04T10:08:10.581Z,47.33
2023-03-04T10:09:35.602Z,49.30
2023-03-04T10:10:27.523Z,48.87
2023-03-04T10:13:50.000Z,45.87
2023-03-04T10:17:14.215Z,48.13
2023-03-04T10:18:45.094Z,46.87
2023-03-04T10:19:27.720Z,48.33
2023-03-04T10:20:58.685Z,47.53
2023-03-04T10:21:50.023Z,46.33
2023-03-04T10:23:20.455Z,46.30
2023-03-04T10:24:58.103Z,50.00
2023-03-04T10:26:20.981Z,47.13
2023-03-04T10:27:04.264Z,46.57
2023-03-04T10:28:31.399Z,46.93
2023-03-04T10:29:17.970Z,45.37
2023-03-04T10:34:34.556Z,47.07
2023-03-04T10:35:23.415Z,46.60
2023-03-04T10:37:43.892Z,45.47
2023-03-04T10:38:29.303Z,46.33
2023-03-04T10:39:18.761Z,45.83
2023-03-04T10:40:01.904Z,45.93
2023-03-04T10:40:42.007Z,44.97
2023-03-04T10:41:21.125Z,44.97
2023-03-04T10:42:13.873Z,45.07
2023-03-04T10:43:08.914Z,45.60
2023-03-04T10:44:10.233Z,46.70
2023-03-04T10:45:23.264Z,45.27
2023-03-04T10:47:55.428Z,45.03
2023-03-04T10:48:35.359Z,45.00
2023-03-04T10:49:17.174Z,43.13
2023-03-04T10:50:01.001Z,43.40
2023-03-04T10:51:04.082Z,42.40
2023-03-04T10:52:19.254Z,46.07
2023-03-04T10:52:59.051Z,45.43
2023-03-04T10:53:42.624Z,45.30
2023-03-04T10:57:13.288Z,45.80
2023-03-04T10:58:52.829Z,46.03
2023-03-04T11:02:53.174Z,45.63
2023-03-04T11:03:34.262Z,46.67
2023-03-04T11:04:19.381Z,45.93
2023-03-04T11:06:23.253Z,44.80
2023-03-04T11:07:26.475Z,44.67
2023-03-04T11:08:06.968Z,46.07
2023-03-04T11:08:56.027Z,46.50
2023-03-04T11:09:35.730Z,44.60
2023-03-04T11:10:40.967Z,47.20
2023-03-04T11:15:02.505Z,46.87
2023-03-04T11:15:59.090Z,46.80
2023-03-04T11:17:55.353Z,47.23
2023-03-04T11:18:53.173Z,47.90
2023-03-04T11:19:39.779Z,46.37
2023-03-04T11:20:29.744Z,44.57
2023-03-04T11:21:57.505Z,46.90
2023-03-04T11:22:45.659Z,46.33
2023-03-04T11:23:27.400Z,44.90
2023-03-04T11:24:28.240Z,44.47
2023-03-04T11:25:34.696Z,44.10
2023-03-04T11:26:13.979Z,45.17
2023-03-04T11:27:17.591Z,43.27
2023-03-04T11:28:19.890Z,44.50
2023-03-04T11:29:13.161Z,44.43
2023-03-04T11:30:31.196Z,44.10
2023-03-04T11:31:20.650Z,43.73
2023-03-04T11:32:58.060Z,42.00
2023-03-04T11:33:46.045Z,45.23
2023-03-04T11:34:37.865Z,44.53
2023-03-04T11:36:13.334Z,43.50
2023-03-04T11:37:03.789Z,44.40
2023-03-04T11:37:42.958Z,43.17
2023-03-04T11:38:22.260Z,45.17
2023-03-04T11:39:06.355Z,44.17
2023-03-04T11:40:23.764Z,43.20
2023-03-04T11:41:14.715Z,43.20
2023-03-04T11:42:34.015Z,44.23
2023-03-04T11:43:25.092Z,44.53
2023-03-04T11:44:52.543Z,44.33
2023-03-04T11:45:40.192Z,42.47
2023-03-04T11:46:37.920Z,44.03
2023-03-04T11:47:32.561Z,44.30
2023-03-04T11:49:03.569Z,43.03
2023-03-04T11:49:43.021Z,43.77
2023-03-04T11:50:28.322Z,45.10
2023-03-04T11:51:38.924Z,46.03
2023-03-04T11:53:21.195Z,43.57
2023-03-04T11:55:09.545Z,43.77
2023-03-04T11:56:00.159Z,44.27
2023-03-04T11:57:46.356Z,46.23
2023-03-04T11:58:49.790Z,45.07
2023-03-04T12:00:01.866Z,43.40
2023-03-04T12:00:59.538Z,45.97
2023-03-04T12:01:48.004Z,42.77
2023-03-04T12:03:55.686Z,46.17
2023-03-04T12:05:03.445Z,46.77
2023-03-04T12:05:59.555Z,46.57
2023-03-04T12:07:01.999Z,44.73
2023-03-04T12:08:07.044Z,44.60
2023-03-04T12:08:46.690Z,44.83
2023-03-04T12:09:46.073Z,45.23
2023-03-04T12:11:43.002Z,46.03
2023-03-04T12:12:59.201Z,44.30
2023-03-04T12:14:09.676Z,45.77
2023-03-04T12:15:49.273Z,44.63
2023-03-04T12:16:57.844Z,45.57
2023-03-04T12:17:56.376Z,47.37
2023-03-04T12:18:48.417Z,46.33
2023-03-04T12:19:56.507Z,45.50
2023-03-04T12:21:37.658Z,45.93
2023-03-04T12:23:23.047Z,47.43
2023-03-04T12:24:08.216Z,46.40
2023-03-04T12:25:17.450Z,47.43
2023-03-04T12:27:41.617Z,46.87
2023-03-04T12:28:52.259Z,48.30
2023-03-04T12:32:16.028Z,47.70
2023-03-04T12:32:57.521Z,48.27
2023-03-04T12:33:51.701Z,45.17
2023-03-04T12:34:31.947Z,43.50
2023-03-04T12:35:37.917Z,45.53
2023-03-04T12:36:17.121Z,45.30
2023-03-04T12:38:27.120Z,47.50
2023-03-04T12:39:39.822Z,48.27
2023-03-04T12:40:49.221Z,48.67
2023-03-04T12:42:19.489Z,47.03
2023-03-04T12:43:08.787Z,46.23
2023-03-04T12:45:27.578Z,46.57
2023-03-04T12:46:50.375Z,46.23
2023-03-04T12:47:29.046Z,46.97
2023-03-04T12:48:35.185Z,45.43
2023-03-04T12:49:21.147Z,45.67
2023-03-04T12:50:25.029Z,45.00
2023-03-04T12:51:10.246Z,45.37
2023-03-04T12:52:16.820Z,45.43
2023-03-04T12:53:14.005Z,46.60
2023-03-04T12:54:50.019Z,45.33
2023-03-04T12:55:39.269Z,44.80
2023-03-04T12:56:41.132Z,44.07
2023-03-04T12:57:31.924Z,47.03
2023-03-04T12:58:37.188Z,48.50
2023-03-04T13:00:15.611Z,49.67
2023-03-04T13:01:16.104Z,46.93
2023-03-04T13:02:21.666Z,44.90
2023-03-04T13:03:18.252Z,46.23
2023-03-04T13:04:56.559Z,48.13
2023-03-04T13:05:57.420Z,48.13
2023-03-04T13:06:46.581Z,44.57